createdAt,value
2018-01-22T00:00:56.468Z,11.53
2018-01-22T00:01:56.456Z,11.52
2018-01-22T00:02:56.447Z,11.70
2018-01-22T00:03:56.438Z,11.39
2018-01-22T00:04:56.430Z,11.45
2018-01-22T00:05:56.410Z,11.23
2018-01-22T00:06:56.398Z,11.49
2018-01-22T00:07:56.398Z,11.81
2018-01-22T00:08:56.402Z,11.65
2018-01-22T00:09:56.374Z,11.62
2018-01-22T00:10:56.368Z,11.25
2018-01-22T00:11:56.359Z,10.72
2018-01-22T00:12:56.356Z,10.62
2018-01-22T00:13:56.349Z,10.02
2018-01-22T00:14:56.322Z,10.19
2018-01-22T00:15:56.321Z,10.21
2018-01-22T00:16:56.310Z,10.18
2018-01-22T00:17:56.303Z,9.94
2018-01-22T00:18:56.287Z,9.79
2018-01-22T00:19:56.294Z,10.08
2018-01-22T00:20:56.264Z,9.80
2018-01-22T00:21:56.249Z,9.73
2018-01-22T00:22:56.248Z,9.48
2018-01-22T00:23:56.240Z,9.52
2018-01-22T00:24:56.224Z,9.14
2018-01-22T00:25:56.214Z,9.53
2018-01-22T00:26:56.209Z,9.14
2018-01-22T00:27:56.200Z,8.74
2018-01-22T00:28:56.191Z,8.66
2018-01-22T00:29:56.179Z,8.42
2018-01-22T00:30:56.165Z,7.91
2018-01-22T00:31:56.164Z,8.16
2018-01-22T00:32:56.145Z,7.86
2018-01-22T00:33:56.143Z,8.10
2018-01-22T00:34:56.121Z,7.80
2018-01-22T00:35:56.121Z,7.70
2018-01-22T00:36:56.110Z,8.01
2018-01-22T00:37:56.095Z,8.31
2018-01-22T00:38:56.090Z,8.14
2018-01-22T00:39:56.080Z,8.28
2018-01-22T00:40:56.071Z,8.24
2018-01-22T00:41:56.066Z,7.50
2018-01-22T00:42:56.052Z,7.28
2018-01-22T00:43:56.044Z,7.64
2018-01-22T00:44:56.038Z,7.32
2018-01-22T00:45:56.020Z,7.32
2018-01-22T00:46:56.010Z,7.30
2018-01-22T00:47:55.999Z,6.86
2018-01-22T00:48:55.994Z,7.12
2018-01-22T00:49:55.975Z,6.96
2018-01-22T00:50:55.967Z,6.49
2018-01-22T00:51:55.960Z,6.74
2018-01-22T00:52:55.946Z,6.75
2018-01-22T00:53:55.935Z,6.96
2018-01-22T00:54:55.929Z,7.06
2018-01-22T00:55:55.917Z,6.80
2018-01-22T00:56:55.912Z,7.01
2018-01-22T00:57:55.894Z,6.79
2018-01-22T00:58:55.889Z,6.80
2018-01-22T00:59:55.880Z,6.73
2018-01-22T01:00:55.874Z,7.07
2018-01-22T01:01:55.852Z,6.87
2018-01-22T01:02:55.847Z,7.13
2018-01-22T01:03:55.848Z,7.12
2018-01-22T01:04:55.832Z,7.15
2018-01-22T01:05:55.818Z,7.15
2018-01-22T01:06:55.807Z,6.65
2018-01-22T01:07:55.798Z,6.53
2018-01-22T01:08:55.792Z,7.27
2018-01-22T01:09:55.770Z,7.07
2018-01-22T01:10:55.769Z,6.79
2018-01-22T01:11:55.774Z,7.08
2018-01-22T01:12:55.751Z,6.93
2018-01-22T01:13:55.745Z,6.84
2018-01-22T01:14:55.730Z,6.76
2018-01-22T01:15:55.724Z,6.64
2018-01-22T01:16:55.715Z,6.71
2018-01-22T01:17:55.694Z,6.76
2018-01-22T01:18:55.691Z,7.30
2018-01-22T01:19:55.687Z,7.58
2018-01-22T01:20:55.664Z,7.50
2018-01-22T01:21:55.668Z,7.74
2018-01-22T01:22:55.656Z,7.43
2018-01-22T01:23:55.637Z,7.34
2018-01-22T01:24:55.632Z,7.64
2018-01-22T01:25:55.621Z,7.40
2018-01-22T01:26:55.610Z,7.70
2018-01-22T01:27:55.615Z,7.47
2018-01-22T01:28:55.584Z,7.30
2018-01-22T01:29:55.589Z,7.12
2018-01-22T01:30:55.577Z,7.50
2018-01-22T01:31:55.561Z,7.58
2018-01-22T01:32:55.552Z,7.40
2018-01-22T01:33:55.544Z,7.15
2018-01-22T01:34:55.537Z,7.48
2018-01-22T01:35:55.526Z,7.50
2018-01-22T01:36:55.516Z,7.23
2018-01-22T01:37:55.503Z,7.10
2018-01-22T01:38:55.489Z,7.32
2018-01-22T01:39:55.498Z,7.07
2018-01-22T01:40:55.472Z,7.31
2018-01-22T01:41:55.459Z,7.30
2018-01-22T01:42:55.452Z,6.96
2018-01-22T01:43:55.447Z,7.40
2018-01-22T01:44:55.431Z,7.36
2018-01-22T01:45:55.422Z,7.25
2018-01-22T01:46:55.408Z,7.07
2018-01-22T01:47:55.400Z,7.54
2018-01-22T01:48:55.392Z,6.95
2018-01-22T01:49:55.379Z,7.27
2018-01-22T01:50:55.370Z,7.24
2018-01-22T01:51:55.368Z,7.52
2018-01-22T01:52:55.355Z,6.92
2018-01-22T01:53:55.342Z,7.30
2018-01-22T01:54:55.332Z,7.32
2018-01-22T01:55:55.324Z,7.16
2018-01-22T01:56:55.313Z,7.35
2018-01-22T01:57:55.301Z,6.75
2018-01-22T01:58:55.306Z,6.79
2018-01-22T01:59:55.281Z,6.91
2018-01-22T02:00:55.272Z,7.38
2018-01-22T02:01:55.260Z,7.01
2018-01-22T02:02:55.249Z,7.09
2018-01-22T02:03:55.248Z,6.84
2018-01-22T02:04:55.230Z,7.42
2018-01-22T02:05:55.220Z,7.16
2018-01-22T02:06:55.212Z,6.79
2018-01-22T02:07:55.205Z,6.60
2018-01-22T02:08:55.192Z,6.27
2018-01-22T02:09:55.182Z,6.76
2018-01-22T02:10:55.173Z,6.38
2018-01-22T02:11:55.165Z,5.99
2018-01-22T02:12:55.155Z,5.96
2018-01-22T02:13:55.140Z,6.24
2018-01-22T02:14:55.129Z,6.34
2018-01-22T02:15:55.124Z,6.78
2018-01-22T02:16:55.109Z,7.26
2018-01-22T02:17:55.098Z,6.96
2018-01-22T02:18:55.102Z,6.85
2018-01-22T02:19:55.089Z,6.88
2018-01-22T02:20:55.073Z,7.04
2018-01-22T02:21:55.062Z,7.35
2018-01-22T02:22:55.061Z,7.62
2018-01-22T02:23:55.044Z,7.28
2018-01-22T02:24:55.028Z,7.52
2018-01-22T02:25:55.018Z,7.66
2018-01-22T02:26:55.008Z,7.97
2018-01-22T02:27:54.994Z,9.60
2018-01-22T02:28:54.998Z,8.24
2018-01-22T02:29:54.979Z,7.79
2018-01-22T02:30:54.981Z,9.38
2018-01-22T02:31:54.963Z,9.62
2018-01-22T02:32:54.953Z,8.04
2018-01-22T02:33:54.936Z,7.66
2018-01-22T02:34:54.931Z,8.89
2018-01-22T02:35:54.924Z,7.98
2018-01-22T02:36:54.909Z,6.88
2018-01-22T02:37:54.903Z,7.72
2018-01-22T02:38:54.889Z,7.83
2018-01-22T02:39:54.881Z,7.53
2018-01-22T02:40:54.870Z,7.14
2018-01-22T02:41:54.862Z,7.41
2018-01-22T02:42:54.848Z,7.26
2018-01-22T02:43:54.840Z,6.95
2018-01-22T02:44:54.831Z,7.30
2018-01-22T02:45:54.819Z,7.32
2018-01-22T02:46:54.808Z,7.41
2018-01-22T02:47:54.802Z,7.57
2018-01-22T02:48:54.804Z,7.62
2018-01-22T02:49:54.782Z,7.89
2018-01-22T02:50:54.771Z,6.86
2018-01-22T02:51:54.781Z,6.28
2018-01-22T02:52:54.763Z,6.68
2018-01-22T02:53:54.771Z,6.64
2018-01-22T02:54:54.737Z,6.93
2018-01-22T02:55:54.725Z,6.86
2018-01-22T02:56:54.714Z,6.70
2018-01-22T02:57:54.708Z,7.13
2018-01-22T02:58:54.697Z,6.61
2018-01-22T02:59:54.695Z,7.04
2018-01-22T03:00:54.669Z,7.82
2018-01-22T03:01:54.665Z,6.89
2018-01-22T03:02:54.654Z,5.98
2018-01-22T03:03:54.657Z,6.37
2018-01-22T03:04:54.637Z,6.14
2018-01-22T03:05:54.616Z,6.06
2018-01-22T03:06:54.619Z,6.14
2018-01-22T03:07:54.601Z,5.97
2018-01-22T03:08:54.618Z,6.62
2018-01-22T03:09:54.582Z,6.60
2018-01-22T03:10:54.578Z,6.18
2018-01-22T03:11:54.564Z,6.09
2018-01-22T03:12:54.554Z,5.82
2018-01-22T03:13:54.535Z,5.54
2018-01-22T03:14:54.532Z,5.89
2018-01-22T03:15:54.533Z,7.88
2018-01-22T03:16:54.546Z,7.20
2018-01-22T03:17:54.513Z,6.20
2018-01-22T03:18:54.496Z,5.56
2018-01-22T03:19:54.500Z,5.12
2018-01-22T03:20:54.481Z,5.80
2018-01-22T03:21:54.462Z,6.02
2018-01-22T03:22:54.467Z,6.80
2018-01-22T03:23:54.446Z,5.60
2018-01-22T03:24:54.435Z,6.30
2018-01-22T03:25:54.424Z,5.95
2018-01-22T03:26:54.433Z,5.83
2018-01-22T03:27:54.409Z,5.07
2018-01-22T03:28:54.398Z,5.28
2018-01-22T03:29:54.395Z,4.79
2018-01-22T03:30:54.382Z,5.18
2018-01-22T03:31:54.367Z,5.48
2018-01-22T03:32:54.361Z,5.22
2018-01-22T03:33:54.344Z,5.18
2018-01-22T03:34:54.343Z,5.34
2018-01-22T03:35:54.325Z,4.98
2018-01-22T03:36:54.320Z,5.05
2018-01-22T03:37:54.313Z,4.45
2018-01-22T03:38:54.308Z,4.34
2018-01-22T03:39:54.289Z,4.92
2018-01-22T03:40:54.276Z,4.54
2018-01-22T03:41:54.262Z,4.60
2018-01-22T03:42:54.270Z,4.70
2018-01-22T03:43:54.251Z,4.70
2018-01-22T03:44:54.241Z,4.47
2018-01-22T03:45:54.232Z,4.09
2018-01-22T03:46:54.214Z,4.25
2018-01-22T03:47:54.220Z,4.12
2018-01-22T03:48:54.215Z,4.11
2018-01-22T03:49:54.190Z,4.14
2018-01-22T03:50:54.177Z,4.00
2018-01-22T03:51:54.169Z,4.14
2018-01-22T03:52:54.157Z,4.06
2018-01-22T03:53:54.154Z,3.92
2018-01-22T03:54:54.138Z,4.20
2018-01-22T03:55:54.130Z,3.95
2018-01-22T03:56:54.119Z,3.86
2018-01-22T03:57:54.110Z,3.96
2018-01-22T03:58:54.097Z,3.51
2018-01-22T03:59:54.094Z,3.75
2018-01-22T04:00:54.100Z,4.12
2018-01-22T04:01:54.084Z,3.82
2018-01-22T04:02:54.070Z,3.71
2018-01-22T04:03:54.056Z,3.84
2018-01-22T04:04:54.048Z,4.04
2018-01-22T04:05:54.031Z,3.78
2018-01-22T04:06:54.021Z,3.88
2018-01-22T04:07:54.014Z,4.26
2018-01-22T04:08:54.003Z,4.33
2018-01-22T04:09:53.999Z,3.92
2018-01-22T04:10:53.983Z,3.84
2018-01-22T04:11:53.974Z,4.21
2018-01-22T04:12:53.963Z,3.94
2018-01-22T04:13:53.951Z,4.30
2018-01-22T04:14:53.947Z,4.20
2018-01-22T04:15:53.938Z,4.00
2018-01-22T04:16:53.930Z,4.47
2018-01-22T04:17:53.918Z,4.39
2018-01-22T04:18:53.918Z,3.98
2018-01-22T04:19:53.902Z,4.14
2018-01-22T04:20:53.890Z,4.05
2018-01-22T04:21:53.879Z,4.07
2018-01-22T04:22:53.866Z,3.90
2018-01-22T04:23:53.858Z,4.10
2018-01-22T04:24:53.851Z,3.84
2018-01-22T04:25:53.838Z,3.93
2018-01-22T04:26:53.829Z,4.47
2018-01-22T04:27:53.821Z,4.38
2018-01-22T04:28:53.813Z,3.89
2018-01-22T04:29:53.808Z,3.89
2018-01-22T04:30:53.789Z,3.96
2018-01-22T04:31:53.778Z,3.74
2018-01-22T04:32:53.780Z,3.84
2018-01-22T04:33:53.759Z,3.62
2018-01-22T04:34:53.745Z,3.78
2018-01-22T04:35:53.741Z,4.35
2018-01-22T04:36:53.739Z,3.86
2018-01-22T04:37:53.721Z,4.21
2018-01-22T04:38:53.715Z,4.10
2018-01-22T04:39:53.718Z,3.97
2018-01-22T04:40:53.691Z,3.86
2018-01-22T04:41:53.680Z,3.98
2018-01-22T04:42:53.682Z,4.00
2018-01-22T04:43:53.672Z,4.20
2018-01-22T04:44:53.674Z,3.81
2018-01-22T04:45:53.646Z,3.86
2018-01-22T04:46:53.632Z,4.08
2018-01-22T04:47:53.625Z,4.26
2018-01-22T04:48:53.614Z,3.96
2018-01-22T04:49:53.620Z,3.70
2018-01-22T04:50:53.606Z,3.99
2018-01-22T04:51:53.594Z,3.86
2018-01-22T04:52:53.576Z,3.77
2018-01-22T04:53:53.565Z,3.58
2018-01-22T04:54:53.560Z,3.76
2018-01-22T04:55:53.548Z,4.03
2018-01-22T04:56:53.537Z,3.83
2018-01-22T04:57:53.544Z,4.03
2018-01-22T04:58:53.521Z,4.12
2018-01-22T04:59:53.517Z,4.11
2018-01-22T05:00:53.496Z,4.03
2018-01-22T05:01:53.492Z,3.36
2018-01-22T05:02:53.485Z,3.60
2018-01-22T05:03:53.470Z,3.77
2018-01-22T05:04:53.474Z,3.45
2018-01-22T05:05:53.452Z,3.30
2018-01-22T05:06:53.439Z,3.38
2018-01-22T05:07:53.438Z,3.44
2018-01-22T05:08:53.419Z,3.58
2018-01-22T05:09:53.412Z,3.35
2018-01-22T05:10:53.407Z,3.56
2018-01-22T05:11:53.397Z,3.44
2018-01-22T05:12:53.388Z,3.32
2018-01-22T05:13:53.377Z,3.32
2018-01-22T05:14:53.373Z,3.76
2018-01-22T05:15:53.359Z,3.86
2018-01-22T05:16:53.348Z,3.26
2018-01-22T05:17:53.337Z,3.77
2018-01-22T05:18:53.325Z,3.62
2018-01-22T05:19:53.318Z,3.42
2018-01-22T05:20:53.309Z,3.42
2018-01-22T05:21:53.294Z,3.54
2018-01-22T05:22:53.296Z,3.58
2018-01-22T05:23:53.277Z,3.38
2018-01-22T05:24:53.268Z,3.60
2018-01-22T05:25:53.256Z,3.50
2018-01-22T05:26:53.249Z,3.54
2018-01-22T05:27:53.248Z,3.53
2018-01-22T05:28:53.230Z,3.27
2018-01-22T05:29:53.222Z,3.64
2018-01-22T05:30:53.209Z,3.46
2018-01-22T05:31:53.196Z,3.26
2018-01-22T05:32:53.190Z,3.32
2018-01-22T05:33:53.181Z,3.82
2018-01-22T05:34:53.202Z,3.28
2018-01-22T05:35:53.166Z,3.36
2018-01-22T05:36:53.148Z,3.45
2018-01-22T05:37:53.141Z,3.34
2018-01-22T05:38:53.153Z,3.30
2018-01-22T05:39:53.143Z,3.29
2018-01-22T05:40:53.109Z,3.21
2018-01-22T05:41:53.102Z,3.35
2018-01-22T05:42:53.097Z,3.53
2018-01-22T05:43:53.087Z,3.44
2018-01-22T05:44:53.078Z,3.52
2018-01-22T05:45:53.078Z,3.43
2018-01-22T05:46:53.049Z,3.56
2018-01-22T05:47:53.042Z,3.47
2018-01-22T05:48:53.026Z,3.76
2018-01-22T05:49:53.242Z,3.62
2018-01-22T05:50:53.041Z,3.16
2018-01-22T05:51:53.034Z,3.36
2018-01-22T05:52:52.999Z,3.36
2018-01-22T05:53:53.004Z,3.36
2018-01-22T05:54:52.980Z,3.64
2018-01-22T05:55:52.969Z,3.47
2018-01-22T05:56:52.960Z,3.52
2018-01-22T05:57:52.968Z,3.82
2018-01-22T05:58:52.934Z,3.58
2018-01-22T05:59:52.952Z,3.74
2018-01-22T06:00:52.937Z,3.77
2018-01-22T06:01:52.922Z,3.76
2018-01-22T06:02:52.994Z,3.74
2018-01-22T06:03:52.900Z,3.90
2018-01-22T06:04:52.885Z,3.82
2018-01-22T06:05:52.875Z,3.88
2018-01-22T06:06:52.862Z,3.91
2018-01-22T06:07:52.856Z,3.86
2018-01-22T06:08:52.850Z,3.47
2018-01-22T06:09:52.840Z,3.39
2018-01-22T06:10:52.825Z,3.61
2018-01-22T06:11:52.820Z,3.80
2018-01-22T06:12:52.819Z,3.48
2018-01-22T06:13:52.796Z,4.03
2018-01-22T06:14:52.794Z,3.73
2018-01-22T06:15:52.777Z,3.42
2018-01-22T06:16:52.782Z,3.34
2018-01-22T06:17:52.760Z,3.35
2018-01-22T06:18:52.783Z,3.71
2018-01-22T06:19:52.737Z,3.61
2018-01-22T06:20:52.745Z,3.28
2018-01-22T06:21:52.732Z,3.34
2018-01-22T06:22:52.739Z,3.42
2018-01-22T06:23:52.707Z,3.28
2018-01-22T06:24:52.703Z,3.12
2018-01-22T06:25:52.682Z,3.30
2018-01-22T06:26:52.686Z,2.90
2018-01-22T06:27:52.686Z,3.31
2018-01-22T06:28:52.655Z,3.35
2018-01-22T06:29:52.665Z,3.40
2018-01-22T06:30:52.632Z,3.47
2018-01-22T06:31:52.635Z,3.28
2018-01-22T06:32:52.622Z,3.32
2018-01-22T06:33:52.652Z,3.32
2018-01-22T06:34:52.603Z,3.57
2018-01-22T06:35:52.593Z,3.49
2018-01-22T06:36:52.608Z,3.60
2018-01-22T06:37:52.601Z,3.41
2018-01-22T06:38:52.579Z,3.50
2018-01-22T06:39:52.579Z,3.55
2018-01-22T06:40:52.544Z,3.40
2018-01-22T06:41:52.557Z,3.75
2018-01-22T06:42:52.524Z,3.64
2018-01-22T06:43:52.547Z,3.74
2018-01-22T06:44:52.569Z,3.42
2018-01-22T06:45:52.543Z,3.21
2018-01-22T06:46:52.499Z,3.87
2018-01-22T06:47:52.553Z,4.84
2018-01-22T06:48:52.637Z,6.55
2018-01-22T06:49:52.500Z,5.02
2018-01-22T06:50:52.519Z,4.90
2018-01-22T06:51:52.477Z,5.05
2018-01-22T06:52:54.444Z,4.84
2018-01-22T06:53:52.427Z,3.87
2018-01-22T06:54:52.420Z,3.46
2018-01-22T06:55:52.427Z,3.32
2018-01-22T06:56:52.403Z,3.08
2018-01-22T06:57:52.399Z,3.10
2018-01-22T06:58:52.393Z,3.49
2018-01-22T06:59:52.392Z,3.40
2018-01-22T07:00:52.377Z,3.10
2018-01-22T07:01:52.364Z,3.29
2018-01-22T07:02:52.352Z,3.03
2018-01-22T07:03:52.339Z,3.16
2018-01-22T07:04:52.377Z,3.05
2018-01-22T07:05:52.321Z,3.19
2018-01-22T07:06:52.311Z,3.43
2018-01-22T07:07:52.307Z,3.56
2018-01-22T07:08:52.298Z,3.56
2018-01-22T07:09:52.290Z,3.66
2018-01-22T07:10:52.281Z,3.61
2018-01-22T07:11:52.340Z,3.56
2018-01-22T07:12:52.259Z,3.58
2018-01-22T07:13:52.248Z,3.62
2018-01-22T07:14:52.244Z,3.82
2018-01-22T07:15:52.234Z,3.49
2018-01-22T07:16:52.232Z,3.78
2018-01-22T07:17:52.259Z,3.72
2018-01-22T07:18:52.227Z,3.62
2018-01-22T07:19:52.205Z,3.57
2018-01-22T07:20:52.196Z,3.42
2018-01-22T07:21:52.208Z,3.42
2018-01-22T07:22:52.180Z,3.79
2018-01-22T07:23:52.167Z,3.30
2018-01-22T07:24:52.148Z,3.53
2018-01-22T07:25:52.154Z,3.14
2018-01-22T07:26:52.161Z,3.74
2018-01-22T07:27:52.279Z,3.70
2018-01-22T07:28:52.283Z,3.53
2018-01-22T07:29:52.136Z,3.26
2018-01-22T07:30:52.196Z,3.32
2018-01-22T07:31:52.232Z,3.33
2018-01-22T07:32:52.204Z,3.42
2018-01-22T07:33:52.144Z,3.53
2018-01-22T07:34:52.245Z,3.70
2018-01-22T07:35:52.178Z,3.68
2018-01-22T07:36:52.123Z,3.47
2018-01-22T07:37:52.167Z,3.48
2018-01-22T07:38:52.217Z,3.58
2018-01-22T07:39:52.153Z,4.11
2018-01-22T07:40:52.200Z,4.31
2018-01-22T07:41:52.046Z,4.93
2018-01-22T07:42:52.176Z,5.28
2018-01-22T07:43:52.067Z,5.52
2018-01-22T07:44:52.024Z,5.60
2018-01-22T07:45:51.985Z,5.83
2018-01-22T07:46:52.064Z,6.06
2018-01-22T07:47:52.041Z,6.33
2018-01-22T07:48:52.103Z,6.58
2018-01-22T07:49:52.122Z,6.47
2018-01-22T07:50:52.021Z,6.48
2018-01-22T07:51:52.079Z,6.38
2018-01-22T07:52:51.920Z,6.36
2018-01-22T07:53:51.928Z,6.51
2018-01-22T07:54:51.896Z,6.26
2018-01-22T07:55:54.641Z,6.46
2018-01-22T07:56:51.880Z,6.29
2018-01-22T07:57:51.888Z,6.63
2018-01-22T07:58:51.866Z,6.40
2018-01-22T07:59:51.857Z,6.70
2018-01-22T08:00:51.846Z,6.33
2018-01-22T08:01:51.854Z,6.60
2018-01-22T08:02:51.832Z,6.64
2018-01-22T08:03:51.832Z,6.71
2018-01-22T08:04:51.836Z,6.64
2018-01-22T08:05:51.810Z,6.56
2018-01-22T08:06:51.817Z,7.73
2018-01-22T08:07:51.809Z,7.17
2018-01-22T08:08:51.785Z,7.19
2018-01-22T08:09:51.771Z,7.06
2018-01-22T08:10:51.768Z,7.03
2018-01-22T08:11:51.778Z,7.38
2018-01-22T08:12:51.741Z,7.09
2018-01-22T08:13:51.768Z,7.25
2018-01-22T08:14:51.751Z,7.35
2018-01-22T08:15:51.717Z,7.22
2018-01-22T08:16:51.720Z,7.50
2018-01-22T08:17:51.693Z,7.77
2018-01-22T08:18:51.690Z,7.54
2018-01-22T08:19:51.679Z,7.26
2018-01-22T08:20:51.671Z,7.81
2018-01-22T08:21:51.658Z,7.58
2018-01-22T08:22:51.660Z,7.88
2018-01-22T08:23:51.665Z,7.60
2018-01-22T08:24:51.638Z,7.85
2018-01-22T08:25:51.627Z,7.77
2018-01-22T08:26:51.629Z,7.73
2018-01-22T08:27:51.627Z,7.82
2018-01-22T08:28:51.622Z,8.04
2018-01-22T08:29:51.637Z,8.01
2018-01-22T08:30:51.602Z,7.68
2018-01-22T08:31:51.599Z,7.84
2018-01-22T08:32:51.568Z,7.98
2018-01-22T08:33:51.571Z,8.00
2018-01-22T08:34:51.559Z,7.85
2018-01-22T08:35:51.567Z,7.66
2018-01-22T08:36:51.569Z,7.42
2018-01-22T08:37:51.552Z,7.54
2018-01-22T08:38:51.549Z,7.49
2018-01-22T08:39:51.518Z,7.57
2018-01-22T08:40:51.504Z,8.31
2018-01-22T08:41:51.508Z,8.14
2018-01-22T08:42:51.506Z,8.12
2018-01-22T08:43:51.493Z,7.89
2018-01-22T08:44:51.480Z,8.20
2018-01-22T08:45:51.468Z,7.74
2018-01-22T08:46:51.451Z,7.76
2018-01-22T08:47:51.451Z,8.00
2018-01-22T08:48:51.454Z,8.22
2018-01-22T08:49:51.428Z,8.28
2018-01-22T08:50:51.442Z,8.32
2018-01-22T08:51:51.427Z,8.32
2018-01-22T08:52:51.403Z,8.58
2018-01-22T08:53:51.399Z,8.34
2018-01-22T08:54:51.384Z,8.53
2018-01-22T08:55:51.384Z,7.89
2018-01-22T08:56:51.368Z,7.92
2018-01-22T08:57:51.407Z,8.24
2018-01-22T08:58:51.385Z,10.16
2018-01-22T08:59:51.373Z,11.36
2018-01-22T09:00:51.348Z,9.75
2018-01-22T09:01:51.337Z,8.92
2018-01-22T09:02:51.343Z,8.48
2018-01-22T09:03:51.319Z,8.64
2018-01-22T09:04:51.327Z,8.64
2018-01-22T09:05:51.319Z,8.61
2018-01-22T09:06:51.315Z,8.46
2018-01-22T09:07:51.288Z,8.79
2018-01-22T09:08:51.277Z,9.06
2018-01-22T09:09:51.273Z,8.85
2018-01-22T09:10:51.261Z,8.80
2018-01-22T09:11:51.269Z,8.52
2018-01-22T09:12:51.250Z,8.73
2018-01-22T09:13:51.234Z,8.20
2018-01-22T09:14:51.236Z,8.20
2018-01-22T09:15:51.222Z,8.24
2018-01-22T09:16:51.214Z,8.43
2018-01-22T09:17:51.228Z,8.58
2018-01-22T09:18:51.207Z,8.30
2018-01-22T09:19:51.206Z,8.36
2018-01-22T09:20:51.178Z,8.01
2018-01-22T09:21:51.193Z,8.26
2018-01-22T09:22:51.173Z,8.34
2018-01-22T09:23:51.175Z,7.96
2018-01-22T09:24:51.168Z,8.10
2018-01-22T09:25:51.162Z,8.45
2018-01-22T09:26:51.176Z,8.11
2018-01-22T09:27:51.120Z,8.23
2018-01-22T09:28:51.124Z,8.23
2018-01-22T09:29:51.123Z,7.06
2018-01-22T09:30:51.103Z,8.00
2018-01-22T09:31:51.114Z,8.28
2018-01-22T09:32:51.106Z,8.48
2018-01-22T09:33:51.086Z,8.26
2018-01-22T09:34:51.094Z,8.36
2018-01-22T09:35:51.091Z,8.38
2018-01-22T09:36:51.065Z,8.46
2018-01-22T09:37:51.059Z,8.36
2018-01-22T09:38:51.052Z,7.73
2018-01-22T09:39:51.054Z,7.92
2018-01-22T09:40:51.055Z,8.14
2018-01-22T09:41:51.072Z,8.46
2018-01-22T09:42:51.011Z,8.29
2018-01-22T09:43:51.012Z,8.37
2018-01-22T09:44:50.995Z,8.56
2018-01-22T09:45:50.997Z,8.12
2018-01-22T09:46:50.995Z,8.07
2018-01-22T09:47:51.003Z,7.86
2018-01-22T09:48:50.979Z,8.00
2018-01-22T09:49:50.972Z,8.22
2018-01-22T09:50:50.959Z,8.22
2018-01-22T09:51:50.951Z,8.00
2018-01-22T09:52:50.952Z,8.22
2018-01-22T09:53:50.948Z,8.94
2018-01-22T09:54:50.934Z,9.32
2018-01-22T09:55:50.921Z,8.95
2018-01-22T09:56:50.921Z,8.77
2018-01-22T09:57:50.923Z,8.90
2018-01-22T09:58:50.903Z,8.82
2018-01-22T09:59:50.907Z,8.63
2018-01-22T10:00:50.898Z,8.26
2018-01-22T10:01:50.906Z,8.39
2018-01-22T10:02:50.886Z,8.09
2018-01-22T10:03:50.955Z,8.56
2018-01-22T10:04:50.867Z,8.60
2018-01-22T10:05:50.853Z,9.24
2018-01-22T10:06:50.855Z,9.07
2018-01-22T10:07:50.844Z,9.51
2018-01-22T10:08:50.836Z,9.70
2018-01-22T10:09:50.838Z,9.48
2018-01-22T10:10:50.824Z,8.65
2018-01-22T10:11:50.814Z,8.56
2018-01-22T10:12:50.809Z,8.65
2018-01-22T10:13:50.828Z,8.08
2018-01-22T10:14:50.817Z,7.86
2018-01-22T10:15:50.791Z,8.46
2018-01-22T10:16:50.779Z,8.28
2018-01-22T10:17:50.770Z,8.11
2018-01-22T10:18:50.768Z,7.62
2018-01-22T10:19:50.809Z,7.48
2018-01-22T10:20:50.761Z,7.37
2018-01-22T10:21:50.764Z,7.03
2018-01-22T10:22:50.734Z,7.42
2018-01-22T10:23:50.724Z,7.11
2018-01-22T10:24:50.739Z,7.22
2018-01-22T10:25:50.727Z,7.46
2018-01-22T10:26:50.726Z,6.86
2018-01-22T10:27:50.707Z,7.12
2018-01-22T10:28:50.760Z,7.27
2018-01-22T10:29:50.707Z,7.20
2018-01-22T10:30:50.685Z,7.28
2018-01-22T10:31:50.694Z,7.72
2018-01-22T10:32:50.684Z,7.68
2018-01-22T10:33:50.668Z,7.31
2018-01-22T10:34:50.668Z,7.21
2018-01-22T10:35:50.663Z,7.56
2018-01-22T10:36:50.654Z,7.50
2018-01-22T10:37:50.644Z,7.84
2018-01-22T10:38:50.634Z,8.61
2018-01-22T10:39:50.639Z,8.42
2018-01-22T10:40:50.623Z,8.34
2018-01-22T10:41:50.630Z,8.65
2018-01-22T10:42:50.618Z,9.32
2018-01-22T10:43:50.638Z,9.62
2018-01-22T10:44:50.592Z,9.13
2018-01-22T10:45:50.583Z,8.97
2018-01-22T10:46:50.615Z,9.12
2018-01-22T10:47:50.597Z,9.34
2018-01-22T10:48:50.596Z,9.47
2018-01-22T10:49:50.560Z,9.23
2018-01-22T10:50:50.558Z,9.28
2018-01-22T10:51:50.567Z,9.69
2018-01-22T10:52:50.537Z,9.69
2018-01-22T10:53:50.558Z,9.82
2018-01-22T10:54:50.527Z,9.36
2018-01-22T10:55:50.520Z,9.66
2018-01-22T10:56:50.529Z,10.12
2018-01-22T10:57:50.509Z,9.98
2018-01-22T10:58:50.515Z,10.10
2018-01-22T10:59:50.560Z,10.23
2018-01-22T11:00:50.492Z,9.95
2018-01-22T11:01:50.485Z,10.50
2018-01-22T11:02:50.488Z,10.45
2018-01-22T11:03:50.479Z,10.19
2018-01-22T11:04:50.584Z,10.08
2018-01-22T11:05:50.459Z,10.14
2018-01-22T11:06:50.464Z,9.86
2018-01-22T11:07:50.461Z,10.15
2018-01-22T11:08:50.822Z,9.59
2018-01-22T11:09:50.454Z,9.53
2018-01-22T11:10:50.658Z,10.04
2018-01-22T11:11:50.444Z,10.42
2018-01-22T11:12:50.416Z,10.02
2018-01-22T11:13:50.465Z,9.79
2018-01-22T11:14:50.412Z,10.01
2018-01-22T11:15:50.430Z,10.32
2018-01-22T11:16:50.581Z,10.07
2018-01-22T11:17:50.430Z,9.57
2018-01-22T11:18:50.468Z,9.50
2018-01-22T11:19:50.374Z,9.99
2018-01-22T11:20:50.399Z,10.69
2018-01-22T11:21:50.363Z,10.51
2018-01-22T11:22:50.363Z,10.26
2018-01-22T11:23:50.490Z,10.13
2018-01-22T11:24:50.383Z,10.04
2018-01-22T11:25:50.394Z,10.52
2018-01-22T11:26:50.931Z,10.67
2018-01-22T11:27:50.350Z,10.86
2018-01-22T11:28:50.346Z,10.64
2018-01-22T11:29:50.338Z,10.06
2018-01-22T11:30:50.308Z,10.46
2018-01-22T11:31:50.308Z,11.29
2018-01-22T11:32:50.325Z,11.20
2018-01-22T11:33:50.332Z,11.38
2018-01-22T11:34:50.294Z,11.35
2018-01-22T11:35:50.309Z,10.49
2018-01-22T11:36:50.299Z,11.06
2018-01-22T11:37:50.293Z,10.85
2018-01-22T11:38:50.304Z,10.50
2018-01-22T11:39:50.295Z,11.23
2018-01-22T11:40:50.328Z,10.82
2018-01-22T11:41:50.274Z,10.34
2018-01-22T11:42:50.249Z,10.93
2018-01-22T11:43:50.293Z,10.23
2018-01-22T11:44:50.243Z,10.16
2018-01-22T11:45:50.263Z,10.12
2018-01-22T11:46:50.247Z,9.88
2018-01-22T11:47:50.362Z,9.76
2018-01-22T11:48:50.210Z,10.23
2018-01-22T11:49:50.200Z,10.60
2018-01-22T11:50:50.209Z,10.18
2018-01-22T11:51:50.190Z,10.05
2018-01-22T11:52:50.208Z,9.72
2018-01-22T11:53:50.199Z,9.63
2018-01-22T11:54:50.184Z,9.94
2018-01-22T11:55:50.188Z,9.70
2018-01-22T11:56:50.196Z,9.20
2018-01-22T11:57:50.183Z,9.34
2018-01-22T11:58:50.153Z,9.46
2018-01-22T11:59:50.164Z,9.44
2018-01-22T12:00:50.159Z,10.05
2018-01-22T12:01:50.133Z,9.20
2018-01-22T12:02:50.152Z,9.56
2018-01-22T12:03:50.143Z,9.64
2018-01-22T12:04:50.142Z,9.21
2018-01-22T12:05:50.116Z,9.72
2018-01-22T12:06:50.106Z,9.14
2018-01-22T12:07:50.113Z,9.58
2018-01-22T12:08:50.227Z,8.96
2018-01-22T12:09:50.111Z,9.02
2018-01-22T12:10:50.087Z,9.35
2018-01-22T12:11:50.083Z,9.53
2018-01-22T12:12:50.086Z,9.13
2018-01-22T12:13:50.072Z,9.21
2018-01-22T12:14:50.057Z,9.19
2018-01-22T12:15:50.072Z,9.30
2018-01-22T12:16:50.081Z,8.76
2018-01-22T12:17:50.078Z,8.98
2018-01-22T12:18:50.048Z,9.28
2018-01-22T12:19:50.045Z,9.38
2018-01-22T12:20:50.041Z,9.26
2018-01-22T12:21:50.022Z,9.05
2018-01-22T12:22:50.023Z,9.20
2018-01-22T12:23:50.011Z,9.42
2018-01-22T12:24:50.017Z,8.92
2018-01-22T12:25:50.008Z,8.57
2018-01-22T12:26:50.014Z,8.84
2018-01-22T12:27:49.989Z,8.56
2018-01-22T12:28:50.040Z,9.01
2018-01-22T12:29:50.004Z,9.38
2018-01-22T12:30:49.995Z,8.95
2018-01-22T12:31:49.982Z,8.77
2018-01-22T12:32:49.967Z,8.32
2018-01-22T12:33:49.954Z,8.46
2018-01-22T12:34:49.962Z,8.23
2018-01-22T12:35:49.981Z,8.98
2018-01-22T12:36:49.961Z,8.98
2018-01-22T12:37:49.938Z,9.15
2018-01-22T12:38:49.928Z,9.62
2018-01-22T12:39:49.957Z,8.79
2018-01-22T12:40:49.948Z,8.94
2018-01-22T12:41:49.935Z,9.00
2018-01-22T12:42:49.932Z,9.12
2018-01-22T12:43:49.904Z,8.51
2018-01-22T12:44:49.895Z,9.06
2018-01-22T12:45:49.919Z,8.89
2018-01-22T12:46:49.899Z,9.35
2018-01-22T12:47:49.885Z,9.11
2018-01-22T12:48:49.911Z,9.15
2018-01-22T12:49:49.881Z,8.91
2018-01-22T12:50:49.890Z,8.69
2018-01-22T12:51:49.880Z,9.00
2018-01-22T12:52:49.854Z,9.12
2018-01-22T12:53:49.880Z,8.65
2018-01-22T12:54:49.868Z,8.54
2018-01-22T12:55:49.879Z,8.78
2018-01-22T12:56:49.836Z,8.90
2018-01-22T12:57:49.844Z,8.60
2018-01-22T12:58:49.836Z,8.43
2018-01-22T12:59:49.855Z,8.22
2018-01-22T13:00:49.866Z,8.54
2018-01-22T13:01:49.844Z,8.89
2018-01-22T13:02:49.821Z,8.44
2018-01-22T13:03:01.844Z,0.32
2018-01-22T13:04:49.804Z,8.94
2018-01-22T13:05:49.793Z,7.79
2018-01-22T13:06:49.804Z,8.84
2018-01-22T13:07:49.801Z,9.09
2018-01-22T13:08:49.774Z,8.92
2018-01-22T13:09:51.560Z,8.49
2018-01-22T13:10:49.806Z,8.59
2018-01-22T13:11:49.780Z,8.45
2018-01-22T13:12:49.756Z,8.07
2018-01-22T13:13:49.772Z,8.43
2018-01-22T13:14:49.745Z,8.02
2018-01-22T13:15:49.766Z,7.86
2018-01-22T13:16:49.733Z,7.96